createdAt,value
2022-11-06T00:02:20.545Z,8.86
2022-11-06T00:04:47.930Z,8.87
2022-11-06T00:07:14.667Z,8.84
2022-11-06T00:09:41.074Z,8.84
2022-11-06T00:12:07.502Z,8.83
2022-11-06T00:14:35.074Z,8.80
2022-11-06T00:17:01.481Z,8.81
2022-11-06T00:19:27.937Z,8.81
2022-11-06T00:21:54.335Z,8.82
2022-11-06T00:24:20.748Z,8.84
2022-11-06T00:26:51.422Z,8.85
2022-11-06T00:29:20.574Z,8.87
2022-11-06T00:31:49.856Z,8.87
2022-11-06T00:34:16.331Z,8.87
2022-11-06T00:36:42.738Z,8.87
2022-11-06T00:39:11.070Z,8.86
2022-11-06T00:41:37.556Z,8.85
2022-11-06T00:44:04.545Z,8.83
2022-11-06T00:46:30.983Z,8.84
2022-11-06T00:48:57.866Z,8.86
2022-11-06T00:51:29.701Z,8.84
2022-11-06T00:53:58.178Z,8.84
2022-11-06T00:56:25.268Z,8.83
2022-11-06T00:58:51.936Z,8.82
2022-11-06T01:01:24.428Z,8.80
2022-11-06T01:03:56.598Z,8.80
2022-11-06T01:06:25.447Z,8.80
2022-11-06T01:08:52.797Z,8.80
2022-11-06T01:11:25.072Z,8.80
2022-11-06T01:13:54.975Z,8.80
2022-11-06T01:16:22.652Z,8.81
2022-11-06T01:18:50.125Z,8.81
2022-11-06T01:21:20.942Z,8.82
2022-11-06T01:23:51.816Z,8.83
2022-11-06T01:26:33.912Z,8.85
2022-11-06T01:29:06.177Z,8.85
2022-11-06T01:31:34.076Z,8.86
2022-11-06T01:34:01.967Z,8.86
2022-11-06T01:36:29.218Z,8.86
2022-11-06T01:38:58.238Z,8.88
2022-11-06T01:41:28.002Z,8.87
2022-11-06T01:43:58.057Z,8.88
2022-11-06T01:46:27.253Z,8.89
2022-11-06T01:49:08.296Z,8.89
2022-11-06T01:51:40.301Z,8.90
2022-11-06T01:54:08.474Z,8.90
2022-11-06T01:56:37.645Z,8.90
2022-11-06T01:59:06.472Z,8.90
2022-11-06T02:01:33.325Z,8.91
2022-11-06T02:04:07.636Z,8.91
2022-11-06T02:06:34.764Z,8.92
2022-11-06T02:09:01.769Z,8.92
2022-11-06T02:11:28.431Z,8.94
2022-11-06T02:14:09.852Z,8.93
2022-11-06T02:16:57.100Z,8.93
2022-11-06T02:19:38.809Z,8.94
2022-11-06T02:22:25.901Z,8.94
2022-11-06T02:25:16.287Z,8.94
2022-11-06T02:27:51.306Z,8.94
2022-11-06T02:30:18.738Z,8.95
2022-11-06T02:33:04.473Z,8.96
2022-11-06T02:35:38.558Z,8.95
2022-11-06T02:38:08.394Z,8.95
2022-11-06T02:40:40.820Z,8.97
2022-11-06T02:43:08.428Z,8.98
2022-11-06T02:45:51.132Z,8.98
2022-11-06T02:48:21.409Z,8.98
2022-11-06T02:50:51.930Z,8.99
2022-11-06T02:53:22.957Z,8.99
2022-11-06T02:56:07.471Z,8.99
2022-11-06T02:58:53.985Z,9.00
2022-11-06T03:01:27.886Z,9.00
2022-11-06T03:04:00.304Z,9.01
2022-11-06T03:06:39.167Z,9.02
2022-11-06T03:09:12.444Z,9.03
2022-11-06T03:11:39.207Z,9.02
2022-11-06T03:14:16.974Z,9.02
2022-11-06T03:17:00.060Z,9.01
2022-11-06T03:19:37.544Z,9.00
2022-11-06T03:22:12.403Z,8.99
2022-11-06T03:25:16.305Z,9.00
2022-11-06T03:28:05.304Z,9.01
2022-11-06T03:30:39.122Z,9.01
2022-11-06T03:33:20.289Z,9.01
2022-11-06T03:36:19.338Z,9.02
2022-11-06T03:38:51.096Z,9.02
2022-11-06T03:41:26.698Z,9.00
2022-11-06T03:43:57.381Z,9.00
2022-11-06T03:46:26.144Z,8.98
2022-11-06T03:49:00.619Z,8.95
2022-11-06T03:51:31.882Z,8.92
2022-11-06T03:54:14.902Z,8.90
2022-11-06T03:56:50.867Z,8.89
2022-11-06T03:59:23.267Z,8.86
2022-11-06T04:01:53.822Z,8.86
2022-11-06T04:04:38.336Z,8.87
2022-11-06T04:07:13.140Z,8.89
2022-11-06T04:10:01.595Z,8.90
2022-11-06T04:12:49.843Z,8.93
2022-11-06T04:15:19.538Z,8.93
2022-11-06T04:17:45.949Z,8.95
2022-11-06T04:20:39.159Z,8.96
2022-11-06T04:23:38.127Z,8.97
2022-11-06T04:26:35.924Z,8.99
2022-11-06T04:29:31.066Z,9.02
2022-11-06T04:32:32.649Z,9.03
2022-11-06T04:35:15.524Z,9.06
2022-11-06T04:37:44.911Z,9.07
2022-11-06T04:40:17.476Z,9.08
2022-11-06T04:43:03.481Z,9.09
2022-11-06T04:45:36.050Z,9.11
2022-11-06T04:48:04.794Z,9.11
2022-11-06T04:50:39.250Z,9.12
2022-11-06T04:53:09.242Z,9.12
2022-11-06T04:55:50.017Z,9.13
2022-11-06T04:58:16.620Z,9.14
2022-11-06T05:00:47.020Z,9.13
2022-11-06T05:03:14.489Z,9.13
2022-11-06T05:05:41.421Z,9.14
2022-11-06T05:08:14.406Z,9.14
2022-11-06T05:10:42.993Z,9.13
2022-11-06T05:13:13.991Z,9.13
2022-11-06T05:15:40.848Z,9.13
2022-11-06T05:18:07.554Z,9.14
2022-11-06T05:20:34.060Z,9.15
2022-11-06T05:23:00.650Z,9.16
2022-11-06T05:25:30.615Z,9.16
2022-11-06T05:27:57.574Z,9.16
2022-11-06T05:30:25.281Z,9.17
2022-11-06T05:32:52.443Z,9.18
2022-11-06T05:35:20.658Z,9.17
2022-11-06T05:37:47.422Z,9.18
2022-11-06T05:40:14.506Z,9.18
2022-11-06T05:42:43.247Z,9.19
2022-11-06T05:45:10.966Z,9.20
2022-11-06T05:47:41.567Z,9.21
2022-11-06T05:50:09.755Z,9.21
2022-11-06T05:52:36.925Z,9.22
2022-11-06T05:55:04.924Z,9.23
2022-11-06T05:57:32.428Z,9.22
2022-11-06T05:59:58.808Z,9.22
2022-11-06T06:02:25.311Z,9.23
2022-11-06T06:04:51.941Z,9.22
2022-11-06T06:07:18.339Z,9.23
2022-11-06T06:09:44.848Z,9.23
2022-11-06T06:12:13.356Z,9.23
2022-11-06T06:14:39.736Z,9.23
2022-11-06T06:17:06.158Z,9.22
2022-11-06T06:19:32.868Z,9.21
2022-11-06T06:21:59.310Z,9.22
2022-11-06T06:24:25.920Z,9.20
2022-11-06T06:26:52.353Z,9.20
2022-11-06T06:29:18.735Z,9.18
2022-11-06T06:31:45.162Z,9.17
2022-11-06T06:34:11.575Z,9.18
2022-11-06T06:36:38.018Z,9.19
2022-11-06T06:39:04.390Z,9.19
2022-11-06T06:41:30.819Z,9.20
2022-11-06T06:43:57.195Z,9.20
2022-11-06T06:46:23.610Z,9.20
2022-11-06T06:48:50.088Z,9.22
2022-11-06T06:51:22.643Z,9.23
2022-11-06T06:53:50.486Z,9.24
2022-11-06T06:56:16.934Z,9.22
2022-11-06T06:58:43.322Z,9.19
2022-11-06T07:01:10.901Z,9.15
2022-11-06T07:03:38.366Z,9.14
2022-11-06T07:06:05.448Z,9.13
2022-11-06T07:08:33.358Z,9.12
2022-11-06T07:11:04.607Z,9.16
2022-11-06T07:13:35.904Z,9.19
2022-11-06T07:16:07.407Z,9.20
2022-11-06T07:18:34.910Z,9.23
2022-11-06T07:21:04.459Z,9.25
2022-11-06T07:23:30.847Z,9.26
2022-11-06T07:25:57.247Z,9.29
2022-11-06T07:28:23.692Z,9.31
2022-11-06T07:30:50.123Z,9.31
2022-11-06T07:33:16.550Z,9.34
2022-11-06T07:35:43.049Z,9.34
2022-11-06T07:38:09.436Z,9.34
2022-11-06T07:40:36.622Z,9.35
2022-11-06T07:43:05.111Z,9.35
2022-11-06T07:45:31.554Z,9.34
2022-11-06T07:47:59.190Z,9.34
2022-11-06T07:50:26.148Z,9.35
2022-11-06T07:52:52.612Z,9.36
2022-11-06T07:55:19.295Z,9.37
2022-11-06T07:57:46.231Z,9.40
2022-11-06T08:00:13.624Z,9.43
2022-11-06T08:02:40.517Z,9.46
2022-11-06T08:05:07.463Z,9.49
2022-11-06T08:07:33.854Z,9.51
2022-11-06T08:10:00.240Z,9.56
2022-11-06T08:12:26.680Z,9.66
2022-11-06T08:14:53.135Z,9.71
2022-11-06T08:17:19.741Z,9.76
2022-11-06T08:19:46.148Z,9.81
2022-11-06T08:22:12.566Z,9.89
2022-11-06T08:24:39.015Z,9.92
2022-11-06T08:27:05.424Z,9.97
2022-11-06T08:29:32.628Z,9.99
2022-11-06T08:32:01.195Z,10.03
2022-11-06T08:34:27.594Z,10.06
2022-11-06T08:36:54.029Z,10.11
2022-11-06T08:39:20.507Z,10.21
2022-11-06T08:41:46.914Z,10.33
2022-11-06T08:44:13.342Z,10.49
2022-11-06T08:46:39.735Z,10.62
2022-11-06T08:49:06.239Z,10.75
2022-11-06T08:51:32.630Z,10.84
2022-11-06T08:53:59.091Z,10.81
2022-11-06T08:56:25.529Z,10.90
2022-11-06T08:58:55.539Z,11.00
2022-11-06T09:01:24.002Z,11.13
2022-11-06T09:03:50.734Z,11.14
2022-11-06T09:06:17.506Z,11.21
2022-11-06T09:08:43.935Z,11.22
2022-11-06T09:11:11.848Z,11.28
2022-11-06T09:13:38.427Z,11.23
2022-11-06T09:16:08.094Z,11.14
2022-11-06T09:18:37.878Z,11.08
2022-11-06T09:21:04.417Z,11.07
2022-11-06T09:23:30.858Z,11.07
2022-11-06T09:25:57.876Z,11.12
2022-11-06T09:28:24.416Z,11.24
2022-11-06T09:30:50.842Z,11.38
2022-11-06T09:33:17.705Z,11.48
2022-11-06T09:35:44.262Z,11.52
2022-11-06T09:38:12.353Z,11.55
2022-11-06T09:40:50.096Z,11.57
2022-11-06T09:44:02.810Z,11.54
2022-11-06T09:46:26.411Z,11.56
2022-11-06T09:48:58.294Z,11.65
2022-11-06T09:51:39.278Z,11.73
2022-11-06T09:54:15.782Z,11.81
2022-11-06T09:56:45.880Z,11.82
2022-11-06T09:59:18.154Z,11.90
2022-11-06T10:01:52.845Z,11.90
2022-11-06T10:04:47.680Z,11.95
2022-11-06T10:07:33.405Z,11.93
2022-11-06T10:10:01.330Z,11.89
2022-11-06T10:13:17.554Z,11.84
2022-11-06T10:15:48.525Z,11.78
2022-11-06T10:18:47.257Z,11.82
2022-11-06T10:21:22.755Z,11.85
2022-11-06T10:24:03.385Z,11.87
2022-11-06T10:26:39.837Z,11.85
2022-11-06T10:29:54.000Z,11.84
2022-11-06T10:33:06.611Z,11.86
2022-11-06T10:35:38.574Z,11.90
2022-11-06T10:38:12.440Z,11.91
2022-11-06T10:40:39.450Z,11.93
2022-11-06T10:43:34.439Z,11.93
2022-11-06T10:46:04.999Z,11.87
2022-11-06T10:48:43.501Z,11.87
2022-11-06T10:51:21.811Z,11.81
2022-11-06T10:54:19.193Z,11.70
2022-11-06T10:56:54.383Z,11.55
2022-11-06T10:59:20.996Z,11.52
2022-11-06T11:01:47.560Z,11.47
2022-11-06T11:04:14.069Z,11.46
2022-11-06T11:06:41.230Z,11.53
2022-11-06T11:09:27.559Z,11.50
2022-11-06T11:11:54.027Z,11.48
2022-11-06T11:14:31.177Z,11.47
2022-11-06T11:17:01.826Z,11.45
2022-11-06T11:19:44.063Z,11.48
2022-11-06T11:22:16.495Z,11.47
2022-11-06T11:25:16.076Z,11.49
2022-11-06T11:27:45.307Z,11.51
2022-11-06T11:30:22.633Z,11.55
2022-11-06T11:32:49.958Z,11.60
2022-11-06T11:35:21.735Z,11.62
2022-11-06T11:37:48.142Z,11.62
2022-11-06T11:40:36.938Z,11.65
2022-11-06T11:43:27.097Z,11.69
2022-11-06T11:46:04.494Z,11.73
2022-11-06T11:48:44.225Z,11.73
2022-11-06T11:51:30.930Z,11.75
2022-11-06T11:54:05.032Z,11.78
2022-11-06T11:57:02.389Z,11.81
2022-11-06T11:59:21.953Z,11.82
2022-11-06T12:01:49.206Z,11.82
2022-11-06T12:04:32.174Z,11.82
2022-11-06T12:07:01.935Z,11.84
2022-11-06T12:09:31.599Z,11.88
2022-11-06T12:12:00.422Z,11.85
2022-11-06T12:14:37.514Z,11.87
2022-11-06T12:17:13.503Z,11.83
2022-11-06T12:19:44.890Z,11.81
2022-11-06T12:22:18.760Z,11.83
2022-11-06T12:25:01.854Z,11.84
2022-11-06T12:27:36.803Z,11.84
2022-11-06T12:30:21.480Z,11.89
2022-11-06T12:32:59.735Z,11.87
2022-11-06T12:35:37.663Z,11.89
2022-11-06T12:38:20.757Z,11.91
2022-11-06T12:41:06.946Z,11.90
2022-11-06T12:43:36.716Z,11.88
2022-11-06T12:46:21.987Z,11.87
2022-11-06T12:49:25.467Z,11.87
2022-11-06T12:52:16.898Z,11.84
2022-11-06T12:55:14.448Z,11.86
2022-11-06T12:58:31.706Z,11.85
2022-11-06T13:01:20.261Z,11.84
2022-11-06T13:04:09.608Z,11.78
2022-11-06T13:06:57.876Z,11.75
2022-11-06T13:09:37.367Z,11.72
2022-11-06T13:12:18.889Z,11.70
2022-11-06T13:15:06.564Z,11.67
2022-11-06T13:17:57.431Z,11.62
2022-11-06T13:20:27.498Z,11.56
2022-11-06T13:23:10.626Z,11.52
2022-11-06T13:25:52.620Z,11.49
2022-11-06T13:28:21.997Z,11.45
2022-11-06T13:30:49.719Z,11.35
2022-11-06T13:33:37.089Z,11.28
2022-11-06T13:36:04.442Z,11.22
2022-11-06T13:38:37.910Z,11.16
2022-11-06T13:41:21.434Z,11.08
2022-11-06T13:44:03.470Z,11.01
2022-11-06T13:46:39.566Z,10.95
2022-11-06T13:49:22.367Z,10.85
2022-11-06T13:51:58.392Z,10.77
2022-11-06T13:55:00.472Z,10.69
2022-11-06T13:57:52.419Z,10.63
2022-11-06T14:00:21.327Z,10.54
2022-11-06T14:02:59.886Z,10.51
2022-11-06T14:05:53.167Z,10.44
2022-11-06T14:08:25.712Z,10.35
2022-11-06T14:10:57.199Z,10.30
2022-11-06T14:13:26.598Z,10.23
2022-11-06T14:16:23.558Z,10.18
2022-11-06T14:19:00.467Z,10.14
2022-11-06T14:21:49.282Z,10.09
2022-11-06T14:24:31.523Z,10.04
2022-11-06T14:27:01.904Z,9.97
2022-11-06T14:29:28.538Z,9.92
2022-11-06T14:32:02.692Z,9.85
2022-11-06T14:34:34.204Z,9.78
2022-11-06T14:37:30.801Z,9.70
2022-11-06T14:39:57.601Z,9.66
2022-11-06T14:42:27.068Z,9.61
2022-11-06T14:44:56.979Z,9.55
2022-11-06T14:47:32.143Z,9.50
2022-11-06T14:50:04.322Z,9.48
2022-11-06T14:52:42.006Z,9.42
2022-11-06T14:55:21.925Z,9.39
2022-11-06T14:57:52.284Z,9.34
2022-11-06T15:00:36.311Z,9.30
2022-11-06T15:03:05.835Z,9.31
2022-11-06T15:05:42.078Z,9.23
2022-11-06T15:08:08.945Z,9.19
2022-11-06T15:10:44.670Z,9.17
2022-11-06T15:13:17.243Z,9.12
2022-11-06T15:15:50.860Z,9.06
2022-11-06T15:18:22.588Z,9.01
2022-11-06T15:20:52.864Z,8.99
2022-11-06T15:23:23.542Z,8.91
2022-11-06T15:26:01.169Z,8.86
2022-11-06T15:28:33.762Z,8.82
2022-11-06T15:31:04.680Z,8.79
2022-11-06T15:33:35.829Z,8.76
2022-11-06T15:36:07.650Z,8.74
2022-11-06T15:38:38.229Z,8.68
2022-11-06T15:41:07.502Z,8.66
2022-11-06T15:43:35.731Z,8.62
2022-11-06T15:46:11.122Z,8.58
2022-11-06T15:48:38.200Z,8.55
2022-11-06T15:51:28.664Z,8.50
2022-11-06T15:53:55.790Z,8.47
2022-11-06T15:56:31.589Z,8.43
2022-11-06T15:59:10.149Z,8.39
2022-11-06T16:01:36.878Z,8.32
2022-11-06T16:04:15.862Z,8.24
2022-11-06T16:06:43.302Z,8.21
2022-11-06T16:09:19.995Z,8.17
2022-11-06T16:11:49.064Z,8.15
2022-11-06T16:14:15.743Z,8.14
2022-11-06T16:16:45.613Z,8.11
2022-11-06T16:19:28.888Z,8.10
2022-11-06T16:22:10.773Z,8.03
2022-11-06T16:24:48.512Z,8.01
2022-11-06T16:27:15.771Z,7.97
2022-11-06T16:29:53.194Z,7.94
2022-11-06T16:32:23.629Z,7.86
2022-11-06T16:34:51.647Z,7.82
2022-11-06T16:37:18.004Z,7.79
2022-11-06T16:39:50.825Z,7.76
2022-11-06T16:42:28.275Z,7.73
2022-11-06T16:45:19.923Z,7.69
2022-11-06T16:48:34.119Z,7.69
2022-11-06T16:51:03.931Z,7.65
2022-11-06T16:53:33.437Z,7.61
2022-11-06T16:56:03.686Z,7.59
2022-11-06T16:58:41.875Z,7.59
2022-11-06T17:01:08.442Z,7.59
2022-11-06T17:03:56.112Z,7.57
2022-11-06T17:06:28.868Z,7.55
2022-11-06T17:09:09.184Z,7.55
2022-11-06T17:11:36.545Z,7.55
2022-11-06T17:14:16.186Z,7.53
2022-11-06T17:17:02.070Z,7.51
2022-11-06T17:19:29.522Z,7.50
2022-11-06T17:21:57.567Z,7.50
2022-11-06T17:24:39.309Z,7.52
2022-11-06T17:27:06.501Z,7.49
2022-11-06T17:29:35.923Z,7.48
2022-11-06T17:32:02.688Z,7.46
2022-11-06T17:34:29.090Z,7.44
2022-11-06T17:36:55.761Z,7.45
2022-11-06T17:39:22.495Z,7.43
2022-11-06T17:41:48.864Z,7.44
2022-11-06T17:44:15.498Z,7.44
2022-11-06T17:46:44.536Z,7.40
2022-11-06T17:49:17.193Z,7.40
2022-11-06T17:51:50.477Z,7.42
2022-11-06T17:54:18.803Z,7.39
2022-11-06T17:56:45.580Z,7.40
2022-11-06T17:59:13.302Z,7.42
2022-11-06T18:01:40.701Z,7.41
2022-11-06T18:04:07.485Z,7.44
2022-11-06T18:06:34.128Z,7.46
2022-11-06T18:09:04.189Z,7.45
2022-11-06T18:11:30.795Z,7.46
2022-11-06T18:13:57.590Z,7.47
2022-11-06T18:16:27.866Z,7.47
2022-11-06T18:18:54.662Z,7.48
2022-11-06T18:21:21.360Z,7.50
2022-11-06T18:23:47.884Z,7.51
2022-11-06T18:26:17.697Z,7.53
2022-11-06T18:28:44.182Z,7.55
2022-11-06T18:31:10.594Z,7.56
2022-11-06T18:33:37.000Z,7.56
2022-11-06T18:36:05.914Z,7.58
2022-11-06T18:38:32.535Z,7.60
2022-11-06T18:40:59.315Z,7.60
2022-11-06T18:43:25.705Z,7.62
2022-11-06T18:45:52.165Z,7.62
2022-11-06T18:48:21.472Z,7.64
2022-11-06T18:50:48.477Z,7.66
2022-11-06T18:53:15.335Z,7.68
2022-11-06T18:55:45.771Z,7.69
2022-11-06T18:58:12.723Z,7.70
2022-11-06T19:00:39.369Z,7.71
2022-11-06T19:03:06.102Z,7.73
2022-11-06T19:05:34.183Z,7.75
2022-11-06T19:08:02.177Z,7.75
2022-11-06T19:10:29.410Z,7.75
2022-11-06T19:12:59.178Z,7.75
2022-11-06T19:15:26.112Z,7.76
2022-11-06T19:17:54.437Z,7.78
2022-11-06T19:20:21.714Z,7.78
2022-11-06T19:22:52.481Z,7.80
2022-11-06T19:25:19.731Z,7.81
2022-11-06T19:27:47.094Z,7.82
2022-11-06T19:30:14.558Z,7.82
2022-11-06T19:32:42.099Z,7.82
2022-11-06T19:35:09.018Z,7.84
2022-11-06T19:37:36.117Z,7.84
2022-11-06T19:40:06.109Z,7.83
2022-11-06T19:42:33.229Z,7.83
2022-11-06T19:45:00.125Z,7.82
2022-11-06T19:47:28.041Z,7.81
2022-11-06T19:49:54.536Z,7.82
2022-11-06T19:52:41.995Z,7.82
2022-11-06T19:55:24.644Z,7.82
2022-11-06T19:57:53.802Z,7.83
2022-11-06T20:00:20.311Z,7.84
2022-11-06T20:02:49.629Z,7.86
2022-11-06T20:05:16.165Z,7.86
2022-11-06T20:07:42.692Z,7.88
2022-11-06T20:10:09.911Z,7.90
2022-11-06T20:12:36.386Z,7.93
2022-11-06T20:15:03.179Z,7.96
2022-11-06T20:17:29.585Z,8.00
2022-11-06T20:19:55.961Z,8.02
2022-11-06T20:22:22.431Z,8.05
2022-11-06T20:24:48.930Z,8.09
2022-11-06T20:27:15.390Z,8.11
2022-11-06T20:29:41.911Z,8.14
2022-11-06T20:32:08.341Z,8.15
2022-11-06T20:34:34.892Z,8.18
2022-11-06T20:37:01.567Z,8.21
2022-11-06T20:39:28.221Z,8.24
2022-11-06T20:41:55.293Z,8.27
2022-11-06T20:44:21.723Z,8.31
2022-11-06T20:46:48.374Z,8.34
2022-11-06T20:49:15.143Z,8.38
2022-11-06T20:52:07.368Z,8.42
2022-11-06T20:54:28.230Z,8.47
2022-11-06T20:56:54.607Z,8.50
2022-11-06T20:59:21.305Z,8.55
2022-11-06T21:01:48.069Z,8.59
2022-11-06T21:04:14.850Z,8.60
2022-11-06T21:06:41.391Z,8.63
2022-11-06T21:09:08.058Z,8.66
2022-11-06T21:11:35.181Z,8.67
2022-11-06T21:14:02.134Z,8.72
2022-11-06T21:16:34.616Z,8.77
2022-11-06T21:19:02.462Z,8.82
2022-11-06T21:21:33.284Z,8.86
2022-11-06T21:24:01.219Z,8.88
2022-11-06T21:26:30.982Z,8.91
2022-11-06T21:28:57.850Z,8.92
2022-11-06T21:31:26.382Z,8.95
2022-11-06T21:33:55.472Z,8.95
2022-11-06T21:36:25.550Z,8.97
2022-11-06T21:38:53.392Z,8.94
2022-11-06T21:41:22.343Z,8.94
2022-11-06T21:43:49.077Z,8.96
2022-11-06T21:46:16.787Z,9.00
2022-11-06T21:48:46.736Z,9.07
2022-11-06T21:51:26.768Z,9.09
2022-11-06T21:54:12.482Z,9.10
2022-11-06T21:56:40.537Z,9.12
2022-11-06T21:59:12.273Z,9.16
2022-11-06T22:01:40.191Z,9.19
2022-11-06T22:04:07.322Z,9.19
2022-11-06T22:06:33.879Z,9.20
2022-11-06T22:09:02.461Z,9.23
2022-11-06T22:11:38.287Z,9.25
2022-11-06T22:14:14.014Z,9.29
2022-11-06T22:16:42.112Z,9.30
2022-11-06T22:19:09.691Z,9.31
2022-11-06T22:21:38.187Z,9.33
2022-11-06T22:24:05.420Z,9.35
2022-11-06T22:26:33.553Z,9.34
2022-11-06T22:29:06.058Z,9.33
2022-11-06T22:31:32.731Z,9.32
2022-11-06T22:33:59.436Z,9.33
2022-11-06T22:36:26.016Z,9.32
2022-11-06T22:38:52.963Z,9.34
2022-11-06T22:41:22.387Z,9.35
2022-11-06T22:43:49.533Z,9.36
2022-11-06T22:46:22.007Z,9.36
2022-11-06T22:48:49.483Z,9.38
2022-11-06T22:51:22.383Z,9.40
2022-11-06T22:53:50.288Z,9.42
2022-11-06T22:56:17.366Z,9.45
2022-11-06T22:58:44.161Z,9.48
2022-11-06T23:01:11.493Z,9.50
2022-11-06T23:03:38.574Z,9.50
2022-11-06T23:06:07.846Z,9.53
2022-11-06T23:08:36.018Z,9.56
2022-11-06T23:11:11.909Z,9.59
2022-11-06T23:13:39.572Z,9.62
2022-11-06T23:16:08.949Z,9.63
2022-11-06T23:18:35.717Z,9.66
2022-11-06T23:21:10.556Z,9.66
2022-11-06T23:23:36.941Z,9.69
2022-11-06T23:26:15.202Z,9.72
2022-11-06T23:28:42.643Z,9.68
2022-11-06T23:31:10.761Z,9.66
2022-11-06T23:33:37.660Z,9.63
2022-11-06T23:36:08.753Z,9.63
2022-11-06T23:38:35.764Z,9.63
2022-11-06T23:41:29.932Z,9.66
2022-11-06T23:43:57.591Z,9.70
2022-11-06T23:46:31.161Z,9.70
2022-11-06T23:48:58.002Z,9.68
2022-11-06T23:51:25.562Z,9.67
2022-11-06T23:53:52.960Z,9.69
2022-11-06T23:56:19.594Z,9.71
2022-11-06T23:58:46.077Z,9.74
